Winchendon, MA

3:46 PM EDT on July 31, 2015 (GMT -0400)
Town Farm Rd | | Change Station
CLOSE
Current Station
Personal Weather Station
Location: Winchendon, MA
Elevation: 1178 ft
Nearby Weather Stations

Elev 1178 ft 42.64 °N, 72.04 °W | Updated 4 seconds ago

Partly Cloudy
Partly Cloudy
80.4 °F
Feels Like 83 °F
N
7.0
Wind Variable Wind from West
Gusts 17.0 mph

Today
High -- | Low -- °F
--% Chance of Precip.
Yesterday
High -- | Low -- °F
Precip. -- in
5:38 AM 8:09 PM
Full, 100% visible
Pressure 29.82 in
Visibility 10.0 miles
Clouds Mostly Cloudy 6000 ft
Mostly Cloudy 7000 ft
Heat Index 83 °F
Dew Point 69 °F
Humidity 69%
Rainfall 0.00 in
Snow Depth Not available.
UV 5 out of 12
Pollen 4.70 out of 12
Air Quality Not available.
Flu Activity Not available.
METAR KAFN 311852Z AUTO 29010G19KT 10SM BKN060 BKN070 27/12 A2982 RMK AO2 SLP096 T02670117

More Conditions Fewer Conditions

Pressure 29.82 in
Visibility 10.0 miles
Clouds Mostly Cloudy 6000 ft
Mostly Cloudy 7000 ft
Heat Index 83 °F
Dew Point 69 °F
Humidity 69%
Rainfall 0.00 in
Snow Depth Not available.
UV 5 out of 12
Pollen 4.70 out of 12
Air Quality Not available.
Flu Activity Not available.
METAR KAFN 311852Z AUTO 29010G19KT 10SM BKN060 BKN070 27/12 A2982 RMK AO2 SLP096 T02670117

More Conditions Fewer Conditions

10-Day Weather Forecast

×

Almanac

Astronomy

Jul. 31, 2015 Rise Set
Actual Time
Civil Twilight
Nautical Twilight
Astronomical Twilight
Moon
Length of Visible Light
Length of Day
Tomorrow will be .
, % of the Moon is Illuminated

Today's Extremes

State Highs State Lows

Community

WunderPhotos

Upload Photos

1,842,713 photos uploaded!

WunderBlogs® & News

Nearby

Air Quality

  Air Quality AQ Index Pollutant
Not available.

Snow Depth

Station Depth Elevation

Earthquake Activity

City Distance Mag. Time & Date
Minimum magnitude displayed is 2.5.

Coastal Water Temperatures

Place Temperature

Stations

Nearby Weather Stations

Station Location Temp. Windchill Dew Point Humidity Wind Precip. Elev Updated Type